sensor_id;sensor_type;location;lat;lon;timestamp;P1;durP1;ratioP1;P2;durP2;ratioP2
74679;SDS011;63211;48.548;2.704;2023-07-24T00:01:53;1.55;;;0.50;;
74679;SDS011;63211;48.548;2.704;2023-07-24T00:04:20;1.65;;;0.70;;
74679;SDS011;63211;48.548;2.704;2023-07-24T00:06:48;1.25;;;0.50;;
74679;SDS011;63211;48.548;2.704;2023-07-24T00:09:14;2.63;;;0.80;;
74679;SDS011;63211;48.548;2.704;2023-07-24T00:11:41;1.20;;;0.60;;
74679;SDS011;63211;48.548;2.704;2023-07-24T00:14:08;2.10;;;0.95;;
74679;SDS011;63211;48.548;2.704;2023-07-24T00:16:34;1.73;;;0.55;;
74679;SDS011;63211;48.548;2.704;2023-07-24T00:19:01;1.92;;;0.73;;
74679;SDS011;63211;48.548;2.704;2023-07-24T00:21:27;1.65;;;0.75;;
74679;SDS011;63211;48.548;2.704;2023-07-24T00:23:56;1.50;;;0.55;;
74679;SDS011;63211;48.548;2.704;2023-07-24T00:26:22;1.50;;;0.57;;
74679;SDS011;63211;48.548;2.704;2023-07-24T00:28:49;1.90;;;0.50;;
74679;SDS011;63211;48.548;2.704;2023-07-24T00:31:15;2.28;;;0.52;;
74679;SDS011;63211;48.548;2.704;2023-07-24T00:33:42;1.40;;;0.57;;
74679;SDS011;63211;48.548;2.704;2023-07-24T00:36:09;2.35;;;0.80;;
74679;SDS011;63211;48.548;2.704;2023-07-24T00:38:35;1.10;;;0.50;;
74679;SDS011;63211;48.548;2.704;2023-07-24T00:41:03;1.85;;;0.60;;
74679;SDS011;63211;48.548;2.704;2023-07-24T00:43:30;1.95;;;0.80;;
74679;SDS011;63211;48.548;2.704;2023-07-24T00:45:56;1.65;;;0.88;;
74679;SDS011;63211;48.548;2.704;2023-07-24T00:48:23;1.63;;;0.80;;
74679;SDS011;63211;48.548;2.704;2023-07-24T00:50:50;2.35;;;0.70;;
74679;SDS011;63211;48.548;2.704;2023-07-24T00:53:17;2.13;;;0.85;;
74679;SDS011;63211;48.548;2.704;2023-07-24T00:55:45;1.35;;;0.50;;
74679;SDS011;63211;48.548;2.704;2023-07-24T00:58:14;1.77;;;0.63;;
74679;SDS011;63211;48.548;2.704;2023-07-24T01:00:42;1.17;;;0.47;;
74679;SDS011;63211;48.548;2.704;2023-07-24T01:03:09;1.17;;;0.52;;
74679;SDS011;63211;48.548;2.704;2023-07-24T01:05:37;1.30;;;0.60;;
74679;SDS011;63211;48.548;2.704;2023-07-24T01:08:05;1.48;;;0.50;;
74679;SDS011;63211;48.548;2.704;2023-07-24T01:10:32;1.60;;;0.63;;
74679;SDS011;63211;48.548;2.704;2023-07-24T01:12:59;1.13;;;0.60;;
74679;SDS011;63211;48.548;2.704;2023-07-24T01:15:32;1.73;;;0.60;;
74679;SDS011;63211;48.548;2.704;2023-07-24T01:18:01;1.50;;;0.63;;
74679;SDS011;63211;48.548;2.704;2023-07-24T01:20:32;1.55;;;0.70;;
74679;SDS011;63211;48.548;2.704;2023-07-24T01:23:04;1.67;;;0.70;;
74679;SDS011;63211;48.548;2.704;2023-07-24T01:25:47;0.90;;;0.40;;
74679;SDS011;63211;48.548;2.704;2023-07-24T01:28:19;2.05;;;0.73;;
74679;SDS011;63211;48.548;2.704;2023-07-24T01:30:45;1.40;;;0.63;;
74679;SDS011;63211;48.548;2.704;2023-07-24T01:33:12;0.93;;;0.38;;
74679;SDS011;63211;48.548;2.704;2023-07-24T01:35:39;1.23;;;0.50;;
74679;SDS011;63211;48.548;2.704;2023-07-24T01:38:08;2.13;;;0.60;;
74679;SDS011;63211;48.548;2.704;2023-07-24T01:40:35;2.30;;;0.75;;
74679;SDS011;63211;48.548;2.704;2023-07-24T01:43:03;1.92;;;0.55;;
74679;SDS011;63211;48.548;2.704;2023-07-24T01:45:30;1.40;;;0.50;;
74679;SDS011;63211;48.548;2.704;2023-07-24T01:47:57;1.33;;;0.47;;
74679;SDS011;63211;48.548;2.704;2023-07-24T01:50:23;1.00;;;0.50;;
74679;SDS011;63211;48.548;2.704;2023-07-24T01:52:50;1.35;;;0.50;;
74679;SDS011;63211;48.548;2.704;2023-07-24T01:55:17;1.77;;;0.50;;
74679;SDS011;63211;48.548;2.704;2023-07-24T01:57:43;2.05;;;0.80;;
74679;SDS011;63211;48.548;2.704;2023-07-24T02:00:12;0.80;;;0.50;;
74679;SDS011;63211;48.548;2.704;2023-07-24T02:02:38;0.88;;;0.40;;
74679;SDS011;63211;48.548;2.704;2023-07-24T02:05:05;0.95;;;0.50;;
74679;SDS011;63211;48.548;2.704;2023-07-24T02:07:32;1.20;;;0.70;;
74679;SDS011;63211;48.548;2.704;2023-07-24T02:09:59;1.75;;;0.60;;
74679;SDS011;63211;48.548;2.704;2023-07-24T02:12:25;1.83;;;0.60;;
74679;SDS011;63211;48.548;2.704;2023-07-24T02:14:52;1.55;;;0.63;;
74679;SDS011;63211;48.548;2.704;2023-07-24T02:17:21;1.27;;;0.55;;
74679;SDS011;63211;48.548;2.704;2023-07-24T02:19:47;2.28;;;0.95;;
74679;SDS011;63211;48.548;2.704;2023-07-24T02:22:14;2.67;;;0.80;;
74679;SDS011;63211;48.548;2.704;2023-07-24T02:24:41;1.40;;;0.65;;
74679;SDS011;63211;48.548;2.704;2023-07-24T02:27:11;0.95;;;0.50;;
74679;SDS011;63211;48.548;2.704;2023-07-24T02:29:39;0.93;;;0.50;;
74679;SDS011;63211;48.548;2.704;2023-07-24T02:32:06;1.35;;;0.63;;
74679;SDS011;63211;48.548;2.704;2023-07-24T02:34:34;2.95;;;0.70;;
74679;SDS011;63211;48.548;2.704;2023-07-24T02:37:01;1.55;;;0.70;;
74679;SDS011;63211;48.548;2.704;2023-07-24T02:39:27;1.15;;;0.45;;
74679;SDS011;63211;48.548;2.704;2023-07-24T02:41:54;1.58;;;0.68;;
74679;SDS011;63211;48.548;2.704;2023-07-24T02:44:20;1.92;;;0.60;;
74679;SDS011;63211;48.548;2.704;2023-07-24T02:46:47;1.52;;;0.50;;
74679;SDS011;63211;48.548;2.704;2023-07-24T02:49:13;1.20;;;0.60;;
74679;SDS011;63211;48.548;2.704;2023-07-24T02:51:41;1.60;;;0.60;;
74679;SDS011;63211;48.548;2.704;2023-07-24T02:54:08;1.85;;;0.90;;
74679;SDS011;63211;48.548;2.704;2023-07-24T02:56:34;1.63;;;0.55;;
74679;SDS011;63211;48.548;2.704;2023-07-24T02:59:01;1.27;;;0.40;;
74679;SDS011;63211;48.548;2.704;2023-07-24T03:01:28;1.45;;;0.40;;
74679;SDS011;63211;48.548;2.704;2023-07-24T03:03:54;2.63;;;0.60;;
74679;SDS011;63211;48.548;2.704;2023-07-24T03:06:21;1.33;;;0.40;;
74679;SDS011;63211;48.548;2.704;2023-07-24T03:08:49;1.50;;;0.52;;
74679;SDS011;63211;48.548;2.704;2023-07-24T03:11:15;2.33;;;0.88;;
74679;SDS011;63211;48.548;2.704;2023-07-24T03:13:42;1.25;;;0.60;;
74679;SDS011;63211;48.548;2.704;2023-07-24T03:16:09;1.48;;;0.70;;
74679;SDS011;63211;48.548;2.704;2023-07-24T03:18:35;2.22;;;0.80;;
74679;SDS011;63211;48.548;2.704;2023-07-24T03:21:02;2.00;;;0.70;;
74679;SDS011;63211;48.548;2.704;2023-07-24T03:23:29;1.55;;;0.45;;
74679;SDS011;63211;48.548;2.704;2023-07-24T03:25:57;1.58;;;0.60;;
74679;SDS011;63211;48.548;2.704;2023-07-24T03:28:24;1.00;;;0.30;;
74679;SDS011;63211;48.548;2.704;2023-07-24T03:30:50;1.08;;;0.50;;
74679;SDS011;63211;48.548;2.704;2023-07-24T03:33:17;2.05;;;0.47;;
74679;SDS011;63211;48.548;2.704;2023-07-24T03:35:44;1.55;;;0.70;;
74679;SDS011;63211;48.548;2.704;2023-07-24T03:38:10;1.40;;;0.60;;
74679;SDS011;63211;48.548;2.704;2023-07-24T03:40:40;1.10;;;0.47;;
74679;SDS011;63211;48.548;2.704;2023-07-24T03:43:08;1.15;;;0.47;;
74679;SDS011;63211;48.548;2.704;2023-07-24T03:45:34;1.02;;;0.55;;
74679;SDS011;63211;48.548;2.704;2023-07-24T03:48:01;1.42;;;0.52;;
74679;SDS011;63211;48.548;2.704;2023-07-24T03:50:28;0.90;;;0.40;;
74679;SDS011;63211;48.548;2.704;2023-07-24T03:52:55;1.55;;;0.50;;
74679;SDS011;63211;48.548;2.704;2023-07-24T03:55:22;1.30;;;0.52;;
74679;SDS011;63211;48.548;2.704;2023-07-24T03:57:48;0.95;;;0.38;;
74679;SDS011;63211;48.548;2.704;2023-07-24T04:00:16;1.35;;;0.55;;
74679;SDS011;63211;48.548;2.704;2023-07-24T04:02:43;1.13;;;0.40;;
74679;SDS011;63211;48.548;2.704;2023-07-24T04:05:10;1.20;;;0.50;;
74679;SDS011;63211;48.548;2.704;2023-07-24T04:07:37;1.10;;;0.57;;
74679;SDS011;63211;48.548;2.704;2023-07-24T04:10:04;2.13;;;0.70;;
74679;SDS011;63211;48.548;2.704;2023-07-24T04:12:31;1.50;;;0.47;;
74679;SDS011;63211;48.548;2.704;2023-07-24T04:14:58;1.88;;;0.43;;
74679;SDS011;63211;48.548;2.704;2023-07-24T04:17:26;1.38;;;0.57;;
74679;SDS011;63211;48.548;2.704;2023-07-24T04:19:52;0.98;;;0.43;;
74679;SDS011;63211;48.548;2.704;2023-07-24T04:22:19;1.38;;;0.47;;
74679;SDS011;63211;48.548;2.704;2023-07-24T04:24:45;0.98;;;0.40;;
74679;SDS011;63211;48.548;2.704;2023-07-24T04:27:12;1.38;;;0.50;;
74679;SDS011;63211;48.548;2.704;2023-07-24T04:29:38;1.25;;;0.40;;
74679;SDS011;63211;48.548;2.704;2023-07-24T04:32:05;1.38;;;0.50;;
74679;SDS011;63211;48.548;2.704;2023-07-24T04:34:34;1.27;;;0.47;;
74679;SDS011;63211;48.548;2.704;2023-07-24T04:37:00;2.33;;;0.60;;
74679;SDS011;63211;48.548;2.704;2023-07-24T04:39:27;0.77;;;0.40;;
74679;SDS011;63211;48.548;2.704;2023-07-24T04:41:54;1.38;;;0.52;;
74679;SDS011;63211;48.548;2.704;2023-07-24T04:44:20;1.75;;;0.60;;
74679;SDS011;63211;48.548;2.704;2023-07-24T04:46:47;1.02;;;0.50;;
74679;SDS011;63211;48.548;2.704;2023-07-24T04:49:13;1.38;;;0.47;;
74679;SDS011;63211;48.548;2.704;2023-07-24T04:51:41;1.65;;;0.55;;
74679;SDS011;63211;48.548;2.704;2023-07-24T04:54:08;2.13;;;0.60;;
74679;SDS011;63211;48.548;2.704;2023-07-24T04:56:34;1.98;;;0.60;;
74679;SDS011;63211;48.548;2.704;2023-07-24T04:59:01;1.25;;;0.45;;
74679;SDS011;63211;48.548;2.704;2023-07-24T05:01:27;0.90;;;0.30;;
74679;SDS011;63211;48.548;2.704;2023-07-24T05:03:54;1.80;;;0.50;;
74679;SDS011;63211;48.548;2.704;2023-07-24T05:06:21;1.02;;;0.35;;
74679;SDS011;63211;48.548;2.704;2023-07-24T05:08:50;2.05;;;0.65;;
74679;SDS011;63211;48.548;2.704;2023-07-24T05:11:16;1.08;;;0.47;;
74679;SDS011;63211;48.548;2.704;2023-07-24T05:13:43;1.73;;;0.50;;
74679;SDS011;63211;48.548;2.704;2023-07-24T05:16:09;2.35;;;0.55;;
74679;SDS011;63211;48.548;2.704;2023-07-24T05:18:36;2.75;;;0.70;;
74679;SDS011;63211;48.548;2.704;2023-07-24T05:21:02;1.73;;;0.40;;
74679;SDS011;63211;48.548;2.704;2023-07-24T05:23:29;1.15;;;0.70;;
74679;SDS011;63211;48.548;2.704;2023-07-24T05:25:57;1.17;;;0.40;;
74679;SDS011;63211;48.548;2.704;2023-07-24T05:28:25;2.33;;;0.60;;
74679;SDS011;63211;48.548;2.704;2023-07-24T05:30:52;1.30;;;0.52;;
74679;SDS011;63211;48.548;2.704;2023-07-24T05:33:19;2.10;;;0.60;;
74679;SDS011;63211;48.548;2.704;2023-07-24T05:35:45;1.52;;;0.47;;
74679;SDS011;63211;48.548;2.704;2023-07-24T05:38:13;1.33;;;0.50;;
74679;SDS011;63211;48.548;2.704;2023-07-24T05:40:39;1.10;;;0.70;;
74679;SDS011;63211;48.548;2.704;2023-07-24T05:43:07;0.70;;;0.30;;
74679;SDS011;63211;48.548;2.704;2023-07-24T05:45:34;1.30;;;0.65;;
74679;SDS011;63211;48.548;2.704;2023-07-24T05:48:01;1.27;;;0.43;;
74679;SDS011;63211;48.548;2.704;2023-07-24T05:50:27;1.05;;;0.40;;
74679;SDS011;63211;48.548;2.704;2023-07-24T05:52:54;1.88;;;0.70;;
74679;SDS011;63211;48.548;2.704;2023-07-24T05:55:20;0.98;;;0.32;;
74679;SDS011;63211;48.548;2.704;2023-07-24T05:57:47;1.40;;;0.52;;
74679;SDS011;63211;48.548;2.704;2023-07-24T06:00:15;1.40;;;0.60;;
74679;SDS011;63211;48.548;2.704;2023-07-24T06:02:42;0.95;;;0.40;;
74679;SDS011;63211;48.548;2.704;2023-07-24T06:05:10;0.75;;;0.22;;
74679;SDS011;63211;48.548;2.704;2023-07-24T06:07:36;2.00;;;0.52;;
74679;SDS011;63211;48.548;2.704;2023-07-24T06:10:03;1.15;;;0.43;;
74679;SDS011;63211;48.548;2.704;2023-07-24T06:12:30;1.00;;;0.60;;
74679;SDS011;63211;48.548;2.704;2023-07-24T06:14:56;0.82;;;0.40;;
74679;SDS011;63211;48.548;2.704;2023-07-24T06:17:24;1.65;;;0.60;;
74679;SDS011;63211;48.548;2.704;2023-07-24T06:19:51;1.83;;;0.50;;
74679;SDS011;63211;48.548;2.704;2023-07-24T06:22:18;1.17;;;0.30;;
74679;SDS011;63211;48.548;2.704;2023-07-24T06:24:44;1.17;;;0.52;;
74679;SDS011;63211;48.548;2.704;2023-07-24T06:27:11;1.05;;;0.40;;
74679;SDS011;63211;48.548;2.704;2023-07-24T06:29:37;1.02;;;0.45;;
74679;SDS011;63211;48.548;2.704;2023-07-24T06:32:04;1.92;;;0.45;;
74679;SDS011;63211;48.548;2.704;2023-07-24T06:34:33;1.73;;;0.60;;
74679;SDS011;63211;48.548;2.704;2023-07-24T06:37:00;1.20;;;0.40;;
74679;SDS011;63211;48.548;2.704;2023-07-24T06:39:26;0.90;;;0.40;;
74679;SDS011;63211;48.548;2.704;2023-07-24T06:41:53;1.38;;;0.30;;
74679;SDS011;63211;48.548;2.704;2023-07-24T06:44:21;1.10;;;0.50;;
74679;SDS011;63211;48.548;2.704;2023-07-24T06:46:47;1.02;;;0.50;;
74679;SDS011;63211;48.548;2.704;2023-07-24T06:49:14;1.67;;;0.65;;
74679;SDS011;63211;48.548;2.704;2023-07-24T06:51:42;0.82;;;0.30;;
74679;SDS011;63211;48.548;2.704;2023-07-24T06:54:08;1.25;;;0.40;;
74679;SDS011;63211;48.548;2.704;2023-07-24T06:56:36;1.17;;;0.30;;
74679;SDS011;63211;48.548;2.704;2023-07-24T06:59:02;1.80;;;0.50;;
74679;SDS011;63211;48.548;2.704;2023-07-24T07:01:29;1.08;;;0.40;;
74679;SDS011;63211;48.548;2.704;2023-07-24T07:03:55;1.45;;;0.60;;
74679;SDS011;63211;48.548;2.704;2023-07-24T07:06:22;0.90;;;0.40;;
74679;SDS011;63211;48.548;2.704;2023-07-24T07:08:50;0.85;;;0.30;;
74679;SDS011;63211;48.548;2.704;2023-07-24T07:11:16;1.08;;;0.43;;
74679;SDS011;63211;48.548;2.704;2023-07-24T07:13:43;0.95;;;0.40;;
74679;SDS011;63211;48.548;2.704;2023-07-24T07:16:09;1.02;;;0.40;;
74679;SDS011;63211;48.548;2.704;2023-07-24T07:18:36;1.88;;;0.40;;
74679;SDS011;63211;48.548;2.704;2023-07-24T07:21:03;1.60;;;0.60;;
74679;SDS011;63211;48.548;2.704;2023-07-24T07:23:29;1.13;;;0.40;;
74679;SDS011;63211;48.548;2.704;2023-07-24T07:25:57;1.08;;;0.40;;
74679;SDS011;63211;48.548;2.704;2023-07-24T07:28:24;1.55;;;0.68;;
74679;SDS011;63211;48.548;2.704;2023-07-24T07:30:50;0.70;;;0.20;;
74679;SDS011;63211;48.548;2.704;2023-07-24T07:33:17;1.13;;;0.40;;
74679;SDS011;63211;48.548;2.704;2023-07-24T07:35:46;0.90;;;0.22;;
74679;SDS011;63211;48.548;2.704;2023-07-24T07:38:13;0.70;;;0.30;;
74679;SDS011;63211;48.548;2.704;2023-07-24T07:40:39;0.65;;;0.30;;
74679;SDS011;63211;48.548;2.704;2023-07-24T07:43:07;1.40;;;0.43;;
74679;SDS011;63211;48.548;2.704;2023-07-24T07:45:34;1.02;;;0.40;;
74679;SDS011;63211;48.548;2.704;2023-07-24T07:48:00;1.42;;;0.40;;
74679;SDS011;63211;48.548;2.704;2023-07-24T07:50:27;0.75;;;0.30;;
74679;SDS011;63211;48.548;2.704;2023-07-24T07:52:53;0.75;;;0.20;;
74679;SDS011;63211;48.548;2.704;2023-07-24T07:55:20;0.60;;;0.20;;
74679;SDS011;63211;48.548;2.704;2023-07-24T07:57:47;0.88;;;0.35;;
74679;SDS011;63211;48.548;2.704;2023-07-24T08:00:15;0.85;;;0.20;;
74679;SDS011;63211;48.548;2.704;2023-07-24T08:02:42;0.80;;;0.30;;
74679;SDS011;63211;48.548;2.704;2023-07-24T08:05:09;1.05;;;0.43;;
74679;SDS011;63211;48.548;2.704;2023-07-24T08:07:36;1.88;;;0.47;;
74679;SDS011;63211;48.548;2.704;2023-07-24T08:10:03;1.23;;;0.30;;
74679;SDS011;63211;48.548;2.704;2023-07-24T08:12:31;0.47;;;0.10;;
74679;SDS011;63211;48.548;2.704;2023-07-24T08:14:58;0.63;;;0.30;;
74679;SDS011;63211;48.548;2.704;2023-07-24T08:17:26;0.40;;;0.10;;
74679;SDS011;63211;48.548;2.704;2023-07-24T08:19:52;0.32;;;0.10;;
74679;SDS011;63211;48.548;2.704;2023-07-24T08:22:19;0.85;;;0.28;;
74679;SDS011;63211;48.548;2.704;2023-07-24T08:24:47;0.73;;;0.28;;
74679;SDS011;63211;48.548;2.704;2023-07-24T08:27:15;1.00;;;0.20;;
74679;SDS011;63211;48.548;2.704;2023-07-24T08:29:42;0.57;;;0.22;;
74679;SDS011;63211;48.548;2.704;2023-07-24T08:32:08;0.70;;;0.22;;
74679;SDS011;63211;48.548;2.704;2023-07-24T08:34:36;0.77;;;0.20;;
74679;SDS011;63211;48.548;2.704;2023-07-24T08:37:03;0.52;;;0.25;;
74679;SDS011;63211;48.548;2.704;2023-07-24T08:39:30;0.40;;;0.20;;
74679;SDS011;63211;48.548;2.704;2023-07-24T08:41:57;0.95;;;0.30;;
74679;SDS011;63211;48.548;2.704;2023-07-24T08:44:23;0.30;;;0.10;;
74679;SDS011;63211;48.548;2.704;2023-07-24T08:46:51;1.63;;;0.28;;
74679;SDS011;63211;48.548;2.704;2023-07-24T08:49:18;0.35;;;0.15;;
74679;SDS011;63211;48.548;2.704;2023-07-24T08:51:46;0.55;;;0.20;;
74679;SDS011;63211;48.548;2.704;2023-07-24T08:54:13;1.02;;;0.60;;
74679;SDS011;63211;48.548;2.704;2023-07-24T08:56:41;0.57;;;0.20;;
74679;SDS011;63211;48.548;2.704;2023-07-24T08:59:12;0.40;;;0.22;;
74679;SDS011;63211;48.548;2.704;2023-07-24T09:01:38;0.63;;;0.28;;
74679;SDS011;63211;48.548;2.704;2023-07-24T09:04:05;0.55;;;0.20;;
74679;SDS011;63211;48.548;2.704;2023-07-24T09:06:32;0.88;;;0.10;;
74679;SDS011;63211;48.548;2.704;2023-07-24T09:09:00;0.52;;;0.20;;
74679;SDS011;63211;48.548;2.704;2023-07-24T09:11:28;0.60;;;0.20;;
74679;SDS011;63211;48.548;2.704;2023-07-24T09:13:54;0.52;;;0.20;;
74679;SDS011;63211;48.548;2.704;2023-07-24T09:16:21;0.90;;;0.28;;
74679;SDS011;63211;48.548;2.704;2023-07-24T09:18:49;0.70;;;0.17;;
74679;SDS011;63211;48.548;2.704;2023-07-24T09:21:26;0.47;;;0.22;;
74679;SDS011;63211;48.548;2.704;2023-07-24T09:23:53;0.50;;;0.25;;
74679;SDS011;63211;48.548;2.704;2023-07-24T09:26:21;0.40;;;0.20;;
74679;SDS011;63211;48.548;2.704;2023-07-24T09:28:51;0.98;;;0.40;;
74679;SDS011;63211;48.548;2.704;2023-07-24T09:31:18;0.98;;;0.20;;
74679;SDS011;63211;48.548;2.704;2023-07-24T09:33:45;1.30;;;0.20;;
74679;SDS011;63211;48.548;2.704;2023-07-24T09:36:12;0.40;;;0.20;;
74679;SDS011;63211;48.548;2.704;2023-07-24T09:38:39;0.63;;;0.28;;
74679;SDS011;63211;48.548;2.704;2023-07-24T09:41:07;0.60;;;0.20;;
74679;SDS011;63211;48.548;2.704;2023-07-24T09:43:35;0.35;;;0.17;;
74679;SDS011;63211;48.548;2.704;2023-07-24T09:46:02;0.25;;;0.20;;
74679;SDS011;63211;48.548;2.704;2023-07-24T09:48:31;0.73;;;0.30;;
74679;SDS011;63211;48.548;2.704;2023-07-24T09:50:59;0.35;;;0.10;;
74679;SDS011;63211;48.548;2.704;2023-07-24T09:53:29;0.35;;;0.13;;
74679;SDS011;63211;48.548;2.704;2023-07-24T09:55:59;0.50;;;0.30;;
74679;SDS011;63211;48.548;2.704;2023-07-24T09:58:27;0.43;;;0.20;;
74679;SDS011;63211;48.548;2.704;2023-07-24T10:00:57;0.75;;;0.13;;
74679;SDS011;63211;48.548;2.704;2023-07-24T10:03:24;0.77;;;0.25;;
74679;SDS011;63211;48.548;2.704;2023-07-24T10:05:52;0.47;;;0.10;;
74679;SDS011;63211;48.548;2.704;2023-07-24T10:08:19;0.90;;;0.22;;
74679;SDS011;63211;48.548;2.704;2023-07-24T10:10:46;0.90;;;0.30;;
74679;SDS011;63211;48.548;2.704;2023-07-24T10:13:16;0.82;;;0.30;;
74679;SDS011;63211;48.548;2.704;2023-07-24T10:15:44;1.13;;;0.20;;
74679;SDS011;63211;48.548;2.704;2023-07-24T10:18:15;0.73;;;0.20;;
74679;SDS011;63211;48.548;2.704;2023-07-24T10:20:42;0.22;;;0.10;;
74679;SDS011;63211;48.548;2.704;2023-07-24T10:23:10;1.70;;;0.38;;
74679;SDS011;63211;48.548;2.704;2023-07-24T10:25:38;0.80;;;0.10;;
74679;SDS011;63211;48.548;2.704;2023-07-24T10:28:07;0.40;;;0.10;;
74679;SDS011;63211;48.548;2.704;2023-07-24T10:30:37;0.65;;;0.20;;
74679;SDS011;63211;48.548;2.704;2023-07-24T10:33:07;0.50;;;0.20;;
74679;SDS011;63211;48.548;2.704;2023-07-24T10:35:40;0.63;;;0.20;;
74679;SDS011;63211;48.548;2.704;2023-07-24T10:38:08;0.70;;;0.28;;
74679;SDS011;63211;48.548;2.704;2023-07-24T10:40:35;0.70;;;0.30;;
74679;SDS011;63211;48.548;2.704;2023-07-24T10:43:05;0.43;;;0.10;;
74679;SDS011;63211;48.548;2.704;2023-07-24T10:45:42;0.20;;;0.10;;
74679;SDS011;63211;48.548;2.704;2023-07-24T10:48:13;0.40;;;0.20;;
74679;SDS011;63211;48.548;2.704;2023-07-24T10:50:42;0.32;;;0.10;;
74679;SDS011;63211;48.548;2.704;2023-07-24T10:53:10;0.30;;;0.10;;
74679;SDS011;63211;48.548;2.704;2023-07-24T10:55:37;0.38;;;0.10;;
74679;SDS011;63211;48.548;2.704;2023-07-24T10:58:05;0.68;;;0.20;;
74679;SDS011;63211;48.548;2.704;2023-07-24T11:00:32;0.43;;;0.20;;
74679;SDS011;63211;48.548;2.704;2023-07-24T11:02:58;0.40;;;0.20;;
74679;SDS011;63211;48.548;2.704;2023-07-24T11:05:25;0.35;;;0.10;;
74679;SDS011;63211;48.548;2.704;2023-07-24T11:07:54;0.30;;;0.10;;
74679;SDS011;63211;48.548;2.704;2023-07-24T11:10:21;0.40;;;0.10;;
74679;SDS011;63211;48.548;2.704;2023-07-24T11:12:49;0.75;;;0.28;;
74679;SDS011;63211;48.548;2.704;2023-07-24T11:15:22;0.55;;;0.20;;
74679;SDS011;63211;48.548;2.704;2023-07-24T11:17:50;0.25;;;0.20;;
74679;SDS011;63211;48.548;2.704;2023-07-24T11:20:16;0.70;;;0.15;;
74679;SDS011;63211;48.548;2.704;2023-07-24T11:22:43;0.50;;;0.20;;
74679;SDS011;63211;48.548;2.704;2023-07-24T11:25:11;0.43;;;0.10;;
74679;SDS011;63211;48.548;2.704;2023-07-24T11:27:39;0.73;;;0.20;;
74679;SDS011;63211;48.548;2.704;2023-07-24T11:30:08;0.40;;;0.10;;
74679;SDS011;63211;48.548;2.704;2023-07-24T11:32:37;0.28;;;0.15;;
74679;SDS011;63211;48.548;2.704;2023-07-24T11:35:05;0.35;;;0.10;;
74679;SDS011;63211;48.548;2.704;2023-07-24T11:37:33;0.30;;;0.10;;
74679;SDS011;63211;48.548;2.704;2023-07-24T11:40:01;0.30;;;0.15;;
74679;SDS011;63211;48.548;2.704;2023-07-24T11:42:31;0.73;;;0.20;;
74679;SDS011;63211;48.548;2.704;2023-07-24T11:45:00;0.40;;;0.10;;
74679;SDS011;63211;48.548;2.704;2023-07-24T11:47:27;0.40;;;0.15;;
74679;SDS011;63211;48.548;2.704;2023-07-24T11:50:00;0.50;;;0.20;;
74679;SDS011;63211;48.548;2.704;2023-07-24T11:52:36;0.68;;;0.20;;
74679;SDS011;63211;48.548;2.704;2023-07-24T11:55:05;0.38;;;0.10;;
74679;SDS011;63211;48.548;2.704;2023-07-24T11:57:34;0.38;;;0.10;;
74679;SDS011;63211;48.548;2.704;2023-07-24T12:00:01;0.32;;;0.25;;
74679;SDS011;63211;48.548;2.704;2023-07-24T12:02:29;1.00;;;0.47;;
74679;SDS011;63211;48.548;2.704;2023-07-24T12:04:58;0.50;;;0.20;;
74679;SDS011;63211;48.548;2.704;2023-07-24T12:07:28;0.75;;;0.28;;
74679;SDS011;63211;48.548;2.704;2023-07-24T12:09:57;0.68;;;0.20;;
74679;SDS011;63211;48.548;2.704;2023-07-24T12:12:24;0.70;;;0.20;;
74679;SDS011;63211;48.548;2.704;2023-07-24T12:14:53;0.43;;;0.10;;
74679;SDS011;63211;48.548;2.704;2023-07-24T12:17:19;0.40;;;0.20;;
74679;SDS011;63211;48.548;2.704;2023-07-24T12:19:46;1.10;;;0.20;;
74679;SDS011;63211;48.548;2.704;2023-07-24T12:22:13;0.45;;;0.15;;
74679;SDS011;63211;48.548;2.704;2023-07-24T12:24:40;0.30;;;0.10;;
74679;SDS011;63211;48.548;2.704;2023-07-24T12:27:06;0.30;;;0.10;;
74679;SDS011;63211;48.548;2.704;2023-07-24T12:29:33;0.75;;;0.10;;
74679;SDS011;63211;48.548;2.704;2023-07-24T12:32:01;0.30;;;0.13;;
74679;SDS011;63211;48.548;2.704;2023-07-24T12:34:27;0.45;;;0.17;;
74679;SDS011;63211;48.548;2.704;2023-07-24T12:36:54;0.68;;;0.20;;
74679;SDS011;63211;48.548;2.704;2023-07-24T12:39:21;0.55;;;0.10;;
74679;SDS011;63211;48.548;2.704;2023-07-24T12:41:47;0.50;;;0.10;;
74679;SDS011;63211;48.548;2.704;2023-07-24T12:44:14;0.40;;;0.10;;
74679;SDS011;63211;48.548;2.704;2023-07-24T12:46:41;0.63;;;0.20;;
74679;SDS011;63211;48.548;2.704;2023-07-24T12:49:08;0.30;;;0.10;;
74679;SDS011;63211;48.548;2.704;2023-07-24T12:51:35;0.30;;;0.17;;
74679;SDS011;63211;48.548;2.704;2023-07-24T12:54:02;0.30;;;0.10;;
74679;SDS011;63211;48.548;2.704;2023-07-24T12:56:28;0.20;;;0.10;;
74679;SDS011;63211;48.548;2.704;2023-07-24T12:58:55;0.35;;;0.20;;
74679;SDS011;63211;48.548;2.704;2023-07-24T13:01:21;0.30;;;0.10;;
74679;SDS011;63211;48.548;2.704;2023-07-24T13:03:49;0.70;;;0.30;;
74679;SDS011;63211;48.548;2.704;2023-07-24T13:06:17;0.17;;;0.08;;
74679;SDS011;63211;48.548;2.704;2023-07-24T13:08:43;0.40;;;0.20;;
74679;SDS011;63211;48.548;2.704;2023-07-24T13:11:10;0.40;;;0.10;;
74679;SDS011;63211;48.548;2.704;2023-07-24T13:13:36;0.20;;;0.20;;
74679;SDS011;63211;48.548;2.704;2023-07-24T13:16:03;1.17;;;0.55;;
74679;SDS011;63211;48.548;2.704;2023-07-24T13:18:30;0.77;;;0.20;;
74679;SDS011;63211;48.548;2.704;2023-07-24T13:20:56;0.63;;;0.22;;
74679;SDS011;63211;48.548;2.704;2023-07-24T13:23:25;0.90;;;0.20;;
74679;SDS011;63211;48.548;2.704;2023-07-24T13:25:51;0.40;;;0.10;;
74679;SDS011;63211;48.548;2.704;2023-07-24T13:28:19;0.43;;;0.10;;
74679;SDS011;63211;48.548;2.704;2023-07-24T13:30:45;0.65;;;0.20;;
74679;SDS011;63211;48.548;2.704;2023-07-24T13:33:12;0.40;;;0.20;;
74679;SDS011;63211;48.548;2.704;2023-07-24T13:35:38;0.80;;;0.28;;
74679;SDS011;63211;48.548;2.704;2023-07-24T13:38:05;0.50;;;0.30;;
74679;SDS011;63211;48.548;2.704;2023-07-24T13:40:34;0.73;;;0.30;;
74679;SDS011;63211;48.548;2.704;2023-07-24T13:43:01;1.00;;;0.30;;
74679;SDS011;63211;48.548;2.704;2023-07-24T13:45:28;0.50;;;0.25;;
74679;SDS011;63211;48.548;2.704;2023-07-24T13:47:56;0.75;;;0.40;;
74679;SDS011;63211;48.548;2.704;2023-07-24T13:50:23;0.75;;;0.47;;
74679;SDS011;63211;48.548;2.704;2023-07-24T13:52:50;1.02;;;0.30;;
74679;SDS011;63211;48.548;2.704;2023-07-24T13:55:16;0.60;;;0.28;;
74679;SDS011;63211;48.548;2.704;2023-07-24T13:57:44;1.85;;;0.40;;
74679;SDS011;63211;48.548;2.704;2023-07-24T14:00:11;1.27;;;0.40;;
74679;SDS011;63211;48.548;2.704;2023-07-24T14:02:38;0.47;;;0.20;;
74679;SDS011;63211;48.548;2.704;2023-07-24T14:05:05;0.57;;;0.20;;
74679;SDS011;63211;48.548;2.704;2023-07-24T14:07:33;1.25;;;0.40;;
74679;SDS011;63211;48.548;2.704;2023-07-24T14:09:59;0.88;;;0.30;;
74679;SDS011;63211;48.548;2.704;2023-07-24T14:12:26;2.65;;;0.45;;
74679;SDS011;63211;48.548;2.704;2023-07-24T14:14:54;1.08;;;0.50;;
74679;SDS011;63211;48.548;2.704;2023-07-24T14:17:21;1.90;;;0.40;;
74679;SDS011;63211;48.548;2.704;2023-07-24T14:19:47;0.70;;;0.20;;
74679;SDS011;63211;48.548;2.704;2023-07-24T14:22:16;1.27;;;0.30;;
74679;SDS011;63211;48.548;2.704;2023-07-24T14:24:42;0.80;;;0.30;;
74679;SDS011;63211;48.548;2.704;2023-07-24T14:27:09;1.23;;;0.43;;
74679;SDS011;63211;48.548;2.704;2023-07-24T14:29:36;2.45;;;0.60;;
74679;SDS011;63211;48.548;2.704;2023-07-24T14:32:04;1.42;;;0.40;;
74679;SDS011;63211;48.548;2.704;2023-07-24T14:34:31;0.70;;;0.40;;
74679;SDS011;63211;48.548;2.704;2023-07-24T14:36:58;1.30;;;0.47;;
74679;SDS011;63211;48.548;2.704;2023-07-24T14:39:24;1.10;;;0.35;;
74679;SDS011;63211;48.548;2.704;2023-07-24T14:41:51;3.33;;;0.52;;
74679;SDS011;63211;48.548;2.704;2023-07-24T14:44:18;1.95;;;0.40;;
74679;SDS011;63211;48.548;2.704;2023-07-24T14:46:44;1.63;;;0.60;;
74679;SDS011;63211;48.548;2.704;2023-07-24T14:49:12;1.38;;;0.40;;